Time;durP1;ratioP1;P1;durP2;ratioP2;P2;SDS_P1;SDS_P2;PMS_P1;PMS_P2;Temp;Humidity;BMP_temperature;BMP_pressure;BME280_temperature;BME280_humidity;BME280_pressure;Samples;Min_cycle;Max_cycle;Signal;HPM_P1;HPM_P2
2022/06/05 00:01:34;;;;;;;6.63;3.20;;;;;;;21.65;55.29;92975.63;2048321;70;20151;-70
2022/06/05 00:04:21;;;;;;;8.07;3.40;;;;;;;21.66;55.46;92968.47;2048301;70;20186;-70
2022/06/05 00:07:04;;;;;;;10.68;3.60;;;;;;;21.68;56.56;92959.94;2048403;70;20278;-70
2022/06/05 00:09:41;;;;;;;;;;;;;;;21.73;55.92;92960.78;2048762;70;20142;-70
2022/06/05 00:12:14;;;;;;;11.07;3.45;;;;;;;21.49;55.79;92973.09;2048527;70;20081;-71
2022/06/05 00:14:41;;;;;;;8.95;3.45;;;;;;;21.44;55.79;92971.56;2048492;70;20676;-71
2022/06/05 00:17:13;;;;;;;9.90;3.58;;;;;;;21.38;56.51;92973.53;2048071;70;20254;-71
2022/06/05 00:19:43;;;;;;;8.57;3.70;;;;;;;21.44;56.17;92974.41;2048509;70;20142;-72
2022/06/05 00:22:08;;;;;;;10.18;3.60;;;;;;;21.29;56.39;92969.69;2048479;70;20235;-72
2022/06/05 00:24:35;;;;;;;9.40;3.63;;;;;;;21.25;56.89;92976.03;2048461;70;20158;-71
2022/06/05 00:27:19;;;;;;;9.48;3.22;;;;;;;21.25;56.30;92973.19;2044739;70;20523;-71
2022/06/05 00:29:45;;;;;;;11.85;3.80;;;;;;;21.16;58.48;92973.66;2044374;70;20147;-71
2022/06/05 00:32:35;;;;;;;12.63;3.50;;;;;;;21.20;57.24;92965.16;2045079;70;20189;-71
2022/06/05 00:35:00;;;;;;;7.05;3.40;;;;;;;21.26;57.36;92968.22;2044837;70;20139;-71
2022/06/05 00:37:40;;;;;;;8.63;3.40;;;;;;;21.28;56.90;92976.84;2045188;70;20158;-71
2022/06/05 00:40:14;;;;;;;6.28;3.55;;;;;;;21.15;56.46;92975.06;2045329;70;20200;-72
2022/06/05 00:42:40;;;;;;;9.77;3.58;;;;;;;21.10;57.14;92979.97;2045178;70;20216;-71
2022/06/05 00:45:09;;;;;;;9.35;3.58;;;;;;;21.17;56.67;92975.13;2045405;70;20155;-71
2022/06/05 00:47:35;;;;;;;8.10;3.50;;;;;;;21.13;56.97;92977.88;2045190;70;20230;-71
2022/06/05 00:50:14;;;;;;;10.98;3.40;;;;;;;21.20;56.24;92977.34;2045053;70;20163;-72
2022/06/05 00:52:43;;;;;;;10.02;3.30;;;;;;;20.97;57.65;92973.19;2045290;70;20169;-72
2022/06/05 00:55:10;;;;;;;9.43;3.53;;;;;;;20.98;56.76;92965.31;2045894;70;20604;-72
2022/06/05 00:57:37;;;;;;;8.93;3.50;;;;;;;21.08;56.76;92970.59;2048362;70;20147;-72
2022/06/05 01:00:20;;;;;;;5.78;3.38;;;;;;;20.92;57.36;92968.03;2048445;70;20162;-71
2022/06/05 01:02:49;;;;;;;11.32;3.58;;;;;;;20.90;57.86;92968.72;2048169;70;20543;-72
2022/06/05 01:05:16;;;;;;;14.00;3.33;;;;;;;21.02;57.09;92963.28;2048245;70;20185;-71
2022/06/05 01:07:42;;;;;;;8.20;3.17;;;;;;;21.06;57.37;92954.09;2048392;70;20173;-71
2022/06/05 01:10:08;;;;;;;9.85;3.42;;;;;;;20.86;58.14;92950.72;2048519;70;20154;-71
2022/06/05 01:12:59;;;;;;;8.00;3.60;;;;;;;21.04;56.23;92928.28;2048388;70;20182;-71
2022/06/05 01:15:45;;;;;;;7.93;3.45;;;;;;;20.92;57.52;92934.41;2048375;70;20929;-71
2022/06/05 01:18:35;;;;;;;8.10;3.30;;;;;;;20.92;57.18;92933.69;2048346;70;20146;-71
2022/06/05 01:21:09;;;;;;;10.90;3.95;;;;;;;20.92;56.55;92942.28;2048532;70;20181;-71
2022/06/05 01:23:50;;;;;;;9.48;3.53;;;;;;;20.84;58.35;92931.34;2048627;70;20145;-71
2022/06/05 01:26:19;;;;;;;9.13;3.22;;;;;;;20.81;57.75;92926.97;2048408;70;20127;-70
2022/06/05 01:29:04;;;;;;;9.85;3.47;;;;;;;21.02;56.29;92931.09;2048362;70;20139;-72
2022/06/05 01:31:42;;;;;;;9.77;3.63;;;;;;;20.96;57.09;92923.06;2048374;70;20158;-70
2022/06/05 01:34:10;;;;;;;7.80;3.40;;;;;;;20.98;56.35;92926.00;2048386;70;20143;-70
2022/06/05 01:36:46;;;;;;;12.57;3.47;;;;;;;20.72;56.89;92920.31;2048428;70;20142;-69
2022/06/05 01:39:42;;;;;;;11.40;3.40;;;;;;;20.52;58.09;92916.88;2048467;70;20151;-70
2022/06/05 01:42:15;;;;;;;8.88;3.30;;;;;;;20.46;57.68;92916.72;2048105;70;20671;-72
2022/06/05 01:44:44;;;;;;;8.40;3.65;;;;;;;20.65;57.48;92930.13;2048427;70;20158;-70
2022/06/05 01:47:25;;;;;;;11.93;3.85;;;;;;;20.69;58.45;92933.09;2048144;69;20166;-72
2022/06/05 01:49:54;;;;;;;;;;;;;;;20.46;58.61;92931.00;2044820;70;20179;-71
2022/06/05 01:52:26;;;;;;;12.80;3.83;;;;;;;20.51;58.51;92924.03;2048075;70;20058;-73
2022/06/05 01:55:18;;;;;;;8.80;3.80;;;;;;;20.64;57.88;92922.94;2048116;70;20169;-72
2022/06/05 01:57:44;;;;;;;9.25;3.33;;;;;;;20.36;58.53;92913.56;2048192;70;20139;-72
2022/06/05 02:00:12;;;;;;;8.25;3.55;;;;;;;20.46;58.39;92908.84;2048282;70;20183;-72
2022/06/05 02:02:51;;;;;;;10.68;4.07;;;;;;;20.63;57.69;92909.34;2048191;70;20145;-73
2022/06/05 02:05:26;;;;;;;7.07;3.42;;;;;;;20.49;57.34;92901.81;2047996;70;20153;-72
2022/06/05 02:07:58;;;;;;;11.35;3.63;;;;;;;20.48;57.95;92903.22;2045008;70;20182;-72
2022/06/05 02:10:35;;;;;;;10.88;3.60;;;;;;;20.45;57.55;92892.38;2048342;70;20527;-72
2022/06/05 02:13:01;;;;;;;9.98;3.53;;;;;;;20.56;58.43;92903.44;2048367;70;20185;-71
2022/06/05 02:15:29;;;;;;;10.95;3.53;;;;;;;20.46;58.83;92893.84;2048428;70;20190;-72
2022/06/05 02:17:59;;;;;;;11.57;3.60;;;;;;;20.41;58.06;92889.41;2048303;70;20152;-73
2022/06/05 02:20:26;;;;;;;9.27;3.65;;;;;;;20.37;57.95;92892.88;2048055;70;20503;-72
2022/06/05 02:22:52;;;;;;;7.80;3.60;;;;;;;20.41;56.89;92887.28;2048336;69;20170;-72
2022/06/05 02:25:24;;;;;;;8.70;3.70;;;;;;;20.29;57.87;92886.94;2048337;70;20157;-72
2022/06/05 02:27:51;;;;;;;7.97;3.30;;;;;;;20.30;59.16;92888.41;2048081;70;20689;-72
2022/06/05 02:30:18;;;;;;;7.05;3.53;;;;;;;20.37;57.93;92880.72;2047757;70;20512;-73
2022/06/05 02:33:10;;;;;;;9.80;3.40;;;;;;;20.52;56.65;92874.00;2048272;70;20190;-72
2022/06/05 02:35:38;;;;;;;10.73;3.55;;;;;;;20.16;58.31;92865.88;2047999;70;20227;-72
2022/06/05 02:38:27;;;;;;;10.68;3.40;;;;;;;20.36;58.34;92871.41;2048394;70;20142;-72
2022/06/05 02:41:28;;;;;;;6.85;3.38;;;;;;;20.35;58.36;92869.25;2047964;70;20621;-72
2022/06/05 02:44:29;;;;;;;8.20;3.42;;;;;;;20.15;57.47;92864.41;2045342;70;20148;-71
2022/06/05 02:47:13;;;;;;;10.10;3.35;;;;;;;20.16;58.66;92870.84;2048349;70;20177;-72
2022/06/05 02:49:48;;;;;;;9.07;3.42;;;;;;;20.19;57.62;92858.78;2048217;70;20191;-72
2022/06/05 02:52:15;;;;;;;8.18;4.03;;;;;;;20.18;58.74;92859.47;2048240;70;20190;-70
2022/06/05 02:54:51;;;;;;;11.90;3.33;;;;;;;20.11;59.38;92857.84;2048291;70;20224;-72
2022/06/05 02:57:17;;;;;;;10.32;3.28;;;;;;;20.14;58.95;92853.66;2048204;70;20190;-72
2022/06/05 02:59:42;;;;;;;12.35;3.70;;;;;;;20.17;59.07;92855.16;2045101;70;20142;-72
2022/06/05 03:04:52;;;;;;;11.60;3.60;;;;;;;20.11;58.95;92852.84;2048123;70;20574;-72
2022/06/05 03:07:18;;;;;;;5.68;3.55;;;;;;;20.09;58.44;92844.22;2048272;70;20600;-72
2022/06/05 03:09:44;;;;;;;8.15;3.35;;;;;;;20.09;57.69;92837.78;2044839;70;20134;-72
2022/06/05 03:12:11;;;;;;;7.30;3.50;;;;;;;19.88;59.92;92839.34;2047636;70;20127;-72
2022/06/05 03:14:36;;;;;;;10.40;3.60;;;;;;;19.73;60.72;92841.06;2048200;70;20158;-72
2022/06/05 03:17:02;;;;;;;9.48;3.20;;;;;;;19.42;61.37;92840.13;2047700;70;20157;-71
2022/06/05 03:19:28;;;;;;;8.65;3.50;;;;;;;19.74;59.87;92836.81;2048131;70;20178;-72
2022/06/05 03:21:53;;;;;;;8.20;3.40;;;;;;;19.85;58.78;92832.13;2048174;70;20263;-72
2022/06/05 03:24:19;;;;;;;10.55;3.72;;;;;;;19.93;58.85;92827.38;2048015;70;20147;-72
2022/06/05 03:26:45;;;;;;;8.32;3.22;;;;;;;19.91;59.60;92818.00;2048274;70;20151;-72
2022/06/05 03:29:11;;;;;;;9.73;3.42;;;;;;;19.83;60.51;92797.78;2047615;70;20149;-72
2022/06/05 03:31:37;;;;;;;8.57;3.88;;;;;;;19.95;59.31;92778.84;2048233;70;20162;-72
2022/06/05 03:34:03;;;;;;;12.82;3.40;;;;;;;19.86;59.83;92776.44;2048000;70;20166;-73
2022/06/05 03:36:30;;;;;;;8.00;3.03;;;;;;;20.00;57.84;92785.41;2048033;70;20150;-72
2022/06/05 03:38:55;;;;;;;6.32;3.40;;;;;;;19.99;58.37;92766.81;2048089;70;20150;-72
2022/06/05 03:41:21;;;;;;;8.65;3.45;;;;;;;19.92;57.93;92770.91;2048329;70;20177;-72
2022/06/05 03:43:47;;;;;;;5.25;3.25;;;;;;;19.85;59.48;92795.72;2048577;70;20265;-72
2022/06/05 03:46:15;;;;;;;13.25;3.53;;;;;;;19.85;58.61;92795.72;2048552;70;20204;-72
2022/06/05 03:48:41;;;;;;;10.13;3.30;;;;;;;19.87;59.21;92787.19;2048497;70;20590;-73
2022/06/05 03:51:13;;;;;;;8.70;3.47;;;;;;;20.06;58.40;92783.44;2048319;70;20218;-73
2022/06/05 03:53:39;;;;;;;8.15;3.20;;;;;;;19.43;59.91;92778.06;2048764;70;20147;-72
2022/06/05 03:56:10;;;;;;;7.55;3.42;;;;;;;19.56;60.25;92774.16;2048750;70;20151;-73
2022/06/05 03:58:36;;;;;;;11.02;4.00;;;;;;;19.40;60.85;92774.44;2048731;70;20153;-73
2022/06/05 04:01:03;;;;;;;11.70;3.65;;;;;;;19.39;60.23;92767.25;2048712;69;20288;-73
2022/06/05 04:03:29;;;;;;;7.70;3.38;;;;;;;19.39;60.87;92755.13;2048568;70;20166;-73
2022/06/05 04:05:54;;;;;;;6.40;3.53;;;;;;;19.44;61.25;92756.69;2048542;70;20147;-73
2022/06/05 04:08:20;;;;;;;11.13;3.70;;;;;;;19.48;61.38;92751.81;2048558;70;20146;-73
2022/06/05 04:10:46;;;;;;;9.95;3.83;;;;;;;18.75;63.65;92763.91;2048683;70;20164;-74
2022/06/05 04:13:11;;;;;;;11.20;3.95;;;;;;;19.10;62.48;92768.53;2048832;70;20143;-74
2022/06/05 04:15:41;;;;;;;10.35;3.95;;;;;;;19.17;62.40;92761.63;2048809;70;20209;-74
2022/06/05 04:18:08;;;;;;;10.30;3.75;;;;;;;19.01;63.44;92759.03;2048605;70;20151;-74
2022/06/05 04:20:37;;;;;;;6.88;3.15;;;;;;;19.21;62.39;92753.19;2048666;70;20143;-73
2022/06/05 04:23:03;;;;;;;8.68;3.47;;;;;;;19.26;61.99;92739.75;2048744;70;20150;-72
2022/06/05 04:25:29;;;;;;;9.65;3.47;;;;;;;19.45;60.78;92747.44;2048691;70;20220;-72
2022/06/05 04:27:56;;;;;;;10.70;3.90;;;;;;;19.36;62.80;92750.75;2048679;70;20242;-72
2022/06/05 04:30:26;;;;;;;9.13;3.80;;;;;;;19.33;61.57;92743.50;2048657;70;20142;-74
2022/06/05 04:32:52;;;;;;;11.27;3.75;;;;;;;19.39;61.57;92741.56;2048606;70;20153;-74
2022/06/05 04:35:17;;;;;;;11.10;3.72;;;;;;;19.42;62.45;92740.22;2048582;70;20661;-73
2022/06/05 04:37:43;;;;;;;8.60;3.65;;;;;;;19.49;61.70;92744.00;2048557;70;20225;-73
2022/06/05 04:40:09;;;;;;;9.60;3.90;;;;;;;19.50;62.27;92736.88;2048670;70;20281;-73
2022/06/05 04:42:36;;;;;;;9.52;3.80;;;;;;;19.59;61.32;92744.28;2048662;70;20151;-74
2022/06/05 04:45:03;;;;;;;10.52;3.83;;;;;;;19.53;62.67;92759.09;2048678;70;20203;-74
2022/06/05 04:47:28;;;;;;;8.07;3.67;;;;;;;19.57;61.62;92760.63;2045415;70;20649;-73
2022/06/05 04:49:54;;;;;;;12.25;4.07;;;;;;;19.70;61.55;92759.56;2048789;70;20151;-74
2022/06/05 04:52:19;;;;;;;10.32;3.65;;;;;;;19.65;62.28;92750.16;2048530;70;20152;-74
2022/06/05 04:54:45;;;;;;;11.45;3.60;;;;;;;19.72;62.49;92748.94;2048565;70;20616;-74
2022/06/05 04:57:11;;;;;;;8.40;3.83;;;;;;;19.72;61.72;92751.06;2048582;70;20503;-73
2022/06/05 04:59:36;;;;;;;8.68;3.63;;;;;;;19.38;63.20;92742.22;2048719;70;20146;-73
2022/06/05 05:02:02;;;;;;;7.32;3.53;;;;;;;19.47;62.82;92729.63;2048548;70;20553;-72
2022/06/05 05:04:28;;;;;;;9.02;4.05;;;;;;;19.51;61.82;92733.34;2048499;70;20226;-73
2022/06/05 05:06:54;;;;;;;13.93;3.75;;;;;;;19.57;61.70;92732.06;2048643;70;20608;-74
2022/06/05 05:09:19;;;;;;;10.02;3.80;;;;;;;19.54;62.79;92726.28;2048609;70;20521;-74
2022/06/05 05:11:45;;;;;;;11.68;4.45;;;;;;;19.62;62.19;92733.66;2048550;70;20193;-73
2022/06/05 05:14:11;;;;;;;8.85;3.75;;;;;;;19.66;61.98;92722.38;2048603;70;20134;-72
2022/06/05 05:16:36;;;;;;;11.18;4.85;;;;;;;19.48;62.80;92720.44;2048515;70;20600;-75
2022/06/05 05:19:02;;;;;;;8.43;4.03;;;;;;;19.29;64.45;92733.44;2048571;70;20205;-74
2022/06/05 05:21:28;;;;;;;9.55;4.15;;;;;;;19.57;62.57;92740.66;2048515;70;20150;-73
2022/06/05 05:23:54;;;;;;;9.40;4.15;;;;;;;19.70;62.07;92731.78;2048688;70;20607;-74
2022/06/05 05:26:23;;;;;;;8.15;4.25;;;;;;;19.49;63.17;92739.00;2048670;70;20142;-73
2022/06/05 05:28:49;;;;;;;9.35;4.18;;;;;;;19.58;63.38;92742.81;2048534;70;20147;-74
2022/06/05 05:31:19;;;;;;;13.63;4.10;;;;;;;19.76;62.38;92734.06;2048520;70;20158;-72
2022/06/05 05:33:47;;;;;;;8.30;3.55;;;;;;;19.75;62.27;92727.63;2048499;70;20156;-72
2022/06/05 05:36:12;;;;;;;6.55;3.50;;;;;;;19.89;60.90;92720.84;2048527;70;20656;-72
2022/06/05 05:42:04;;;;;;;11.93;3.80;;;;;;;19.78;60.85;92716.97;2048674;70;20234;-74
2022/06/05 05:44:08;;;;;;;9.63;3.88;;;;;;;19.83;60.23;92718.53;2048486;70;20154;-72
2022/06/05 05:46:33;;;;;;;7.97;3.92;;;;;;;19.77;60.14;92721.22;2048414;70;20146;-75
2022/06/05 05:48:59;;;;;;;11.65;3.58;;;;;;;19.73;60.44;92715.41;2048396;70;20620;-71
2022/06/05 05:51:25;;;;;;;9.45;3.60;;;;;;;19.84;58.45;92700.00;2048367;70;20154;-72
2022/06/05 05:53:50;;;;;;;9.90;3.53;;;;;;;19.75;59.47;92712.63;2048536;70;20157;-72
2022/06/05 05:56:16;;;;;;;8.35;3.55;;;;;;;19.65;60.64;92712.31;2048517;70;20147;-72
2022/06/05 05:58:42;;;;;;;14.90;4.10;;;;;;;19.87;59.11;92695.78;2048535;70;20158;-72
2022/06/05 06:01:10;;;;;;;9.35;3.60;;;;;;;19.90;59.54;92683.03;2048404;70;20219;-73
2022/06/05 06:03:36;;;;;;;14.13;3.78;;;;;;;20.00;59.79;92708.25;2048274;69;20155;-73
2022/06/05 06:06:02;;;;;;;9.43;3.55;;;;;;;19.99;60.41;92701.81;2048326;70;20146;-74
2022/06/05 06:08:29;;;;;;;9.90;3.72;;;;;;;19.58;60.37;92699.25;2045282;70;20249;-73
2022/06/05 06:10:54;;;;;;;14.05;4.18;;;;;;;19.84;60.31;92693.53;2048345;70;20216;-74
2022/06/05 06:13:20;;;;;;;6.15;3.50;;;;;;;19.85;59.27;92675.03;2048371;70;20166;-72
2022/06/05 06:15:49;;;;;;;8.00;3.47;;;;;;;19.92;59.34;92690.91;2045071;70;20139;-73
2022/06/05 06:18:15;;;;;;;16.45;3.92;;;;;;;19.82;59.54;92685.66;2044914;70;20143;-73
2022/06/05 06:20:46;;;;;;;11.45;3.92;;;;;;;19.87;59.71;92678.66;2044990;70;20154;-74
2022/06/05 06:23:11;;;;;;;7.60;3.55;;;;;;;20.01;59.81;92687.56;2048351;70;20204;-74
2022/06/05 06:25:38;;;;;;;11.68;3.85;;;;;;;20.15;60.43;92672.19;2048421;70;20155;-74
2022/06/05 06:28:05;;;;;;;10.40;3.90;;;;;;;20.22;59.48;92668.81;2048297;70;20204;-74
2022/06/05 06:30:34;;;;;;;13.32;3.80;;;;;;;20.42;57.80;92662.13;2045017;70;20602;-74
2022/06/05 06:33:01;;;;;;;9.93;3.50;;;;;;;20.52;59.33;92671.69;2045051;70;20143;-74
2022/06/05 06:35:27;;;;;;;13.07;3.63;;;;;;;20.57;60.20;92658.22;2045049;70;20156;-75
2022/06/05 06:37:53;;;;;;;8.60;3.60;;;;;;;20.71;61.62;92660.66;2048319;70;20153;-76
2022/06/05 06:40:19;;;;;;;12.35;3.60;;;;;;;20.72;60.80;92651.44;2048387;70;20146;-75
2022/06/05 06:42:45;;;;;;;11.02;4.03;;;;;;;20.61;59.80;92660.44;2048464;70;20134;-74
2022/06/05 06:45:14;;;;;;;6.38;3.55;;;;;;;20.83;60.12;92643.06;2048390;70;20135;-75
2022/06/05 06:47:39;;;;;;;8.75;4.10;;;;;;;20.74;57.84;92637.16;2045005;70;20154;-74
2022/06/05 06:50:05;;;;;;;12.25;4.05;;;;;;;20.70;58.20;92636.34;2048021;70;20176;-74
2022/06/05 06:52:31;;;;;;;10.98;4.20;;;;;;;20.93;58.09;92651.88;2048381;70;20215;-74
2022/06/05 06:54:57;;;;;;;11.25;3.72;;;;;;;21.12;57.73;92639.41;2048197;70;20178;-74
2022/06/05 06:57:23;;;;;;;8.85;3.80;;;;;;;21.19;60.74;92628.81;2048446;70;20135;-74
2022/06/05 06:59:49;;;;;;;9.57;3.40;;;;;;;21.26;58.66;92618.94;2045034;70;20230;-74
2022/06/05 07:02:15;;;;;;;10.13;3.92;;;;;;;21.35;59.38;92619.81;2048252;70;20226;-75
2022/06/05 07:04:40;;;;;;;8.95;3.47;;;;;;;21.48;59.31;92612.91;2048168;70;20151;-74
2022/06/05 07:07:06;;;;;;;13.02;4.05;;;;;;;21.63;59.42;92611.06;2048291;70;20147;-75
2022/06/05 07:09:32;;;;;;;11.90;3.80;;;;;;;21.62;57.16;92612.47;2048410;70;20150;-75
2022/06/05 07:11:58;;;;;;;11.18;3.63;;;;;;;21.69;58.39;92605.44;2048256;70;20170;-74
2022/06/05 07:14:25;;;;;;;14.68;4.05;;;;;;;21.87;60.51;92613.63;2048320;70;20513;-74
2022/06/05 07:16:51;;;;;;;14.07;3.88;;;;;;;21.92;60.23;92603.69;2048546;70;20231;-75
2022/06/05 07:19:17;;;;;;;14.27;4.28;;;;;;;22.03;59.64;92576.63;2048740;70;20172;-75
2022/06/05 07:21:43;;;;;;;9.32;3.78;;;;;;;22.11;58.91;92573.91;2048835;70;20238;-75
2022/06/05 07:24:09;;;;;;;14.30;4.30;;;;;;;22.05;55.90;92582.41;2048787;70;20147;-75
2022/06/05 07:26:35;;;;;;;10.20;3.70;;;;;;;22.05;55.00;92596.75;2048902;70;20135;-75
2022/06/05 07:29:02;;;;;;;13.00;3.78;;;;;;;22.20;55.45;92586.97;2048946;70;20216;-75
2022/06/05 07:31:29;;;;;;;11.75;3.80;;;;;;;22.38;56.65;92580.09;2048851;70;20169;-75
2022/06/05 07:33:56;;;;;;;11.85;4.10;;;;;;;22.47;58.38;92582.38;2048697;70;20147;-75
2022/06/05 07:36:24;;;;;;;11.48;3.63;;;;;;;22.59;55.97;92587.56;2048752;69;20135;-75
2022/06/05 07:38:50;;;;;;;9.18;3.38;;;;;;;22.64;54.79;92585.50;2048783;70;20604;-75
2022/06/05 07:41:20;;;;;;;11.68;4.00;;;;;;;22.69;56.40;92584.84;2048737;70;20142;-75
2022/06/05 07:43:46;;;;;;;18.15;3.80;;;;;;;22.80;56.85;92571.34;2048763;70;20146;-75
2022/06/05 07:46:12;;;;;;;11.15;3.90;;;;;;;22.99;55.74;92566.59;2048766;70;20163;-75
2022/06/05 07:48:39;;;;;;;11.18;3.53;;;;;;;22.95;54.07;92557.94;2048793;70;20202;-75
2022/06/05 07:56:43;;;;;;;11.85;4.15;;;;;;;23.39;54.42;92543.38;2049270;70;20229;-74
2022/06/05 07:59:09;;;;;;;11.68;3.83;;;;;;;23.44;54.21;92538.41;2049533;70;20170;-77
2022/06/05 08:01:35;;;;;;;11.75;3.97;;;;;;;23.80;57.19;92530.16;2049414;70;20234;-74
2022/06/05 08:04:02;;;;;;;15.13;4.00;;;;;;;23.96;52.16;92525.97;2049503;70;20162;-74
2022/06/05 08:06:27;;;;;;;13.80;4.30;;;;;;;24.00;52.48;92517.38;2049565;70;20252;-75
2022/06/05 08:08:53;;;;;;;10.13;4.72;;;;;;;24.36;53.71;92516.91;2049878;69;20238;-74
2022/06/05 08:11:19;;;;;;;13.70;4.10;;;;;;;24.45;52.91;92512.69;2049834;70;20184;-75
2022/06/05 08:13:45;;;;;;;8.77;4.13;;;;;;;24.76;52.40;92522.22;2046506;70;20142;-74
2022/06/05 08:16:12;;;;;;;11.20;4.20;;;;;;;25.04;51.70;92518.75;2049901;70;20150;-76
2022/06/05 08:18:38;;;;;;;10.10;4.28;;;;;;;25.38;52.33;92519.59;2050005;70;20178;-76
2022/06/05 08:21:06;;;;;;;12.80;4.43;;;;;;;25.65;53.84;92509.56;2050091;70;20159;-76
2022/06/05 08:23:32;;;;;;;12.38;4.50;;;;;;;26.00;53.50;92504.56;2050042;70;20143;-75
2022/06/05 08:25:58;;;;;;;9.13;4.18;;;;;;;26.25;47.69;92507.44;2049479;70;20232;-76
2022/06/05 08:28:25;;;;;;;14.27;4.15;;;;;;;26.49;48.27;92504.56;2049124;70;20178;-76
2022/06/05 08:30:52;;;;;;;9.85;4.30;;;;;;;26.84;45.84;92508.06;2048869;70;20604;-77
2022/06/05 08:33:20;;;;;;;12.70;4.00;;;;;;;27.34;46.29;92508.63;2048823;69;20166;-75
2022/06/05 08:35:46;;;;;;;10.60;4.18;;;;;;;27.43;44.22;92498.47;2048448;70;20173;-75
2022/06/05 08:41:27;;;;;;;24.08;4.97;;;;;;;27.95;46.54;92490.19;2048766;70;20162;-75
2022/06/05 08:44:11;;;;;;;13.85;4.53;;;;;;;28.39;43.44;92488.44;2048872;70;20142;-75
2022/06/05 08:46:40;;;;;;;11.35;4.53;;;;;;;28.48;45.09;92489.78;2048758;70;20122;-75
2022/06/05 08:49:11;;;;;;;11.93;4.25;;;;;;;28.62;44.36;92493.25;2048659;70;20613;-75
2022/06/05 08:51:55;;;;;;;11.23;4.10;;;;;;;28.50;42.73;92484.72;2048757;70;20590;-75
2022/06/05 08:54:56;;;;;;;11.65;4.10;;;;;;;28.75;42.07;92488.06;2048783;70;20154;-75
2022/06/05 08:57:52;;;;;;;13.38;4.30;;;;;;;28.80;42.64;92485.84;2045680;70;20151;-75
2022/06/05 09:00:40;;;;;;;11.82;4.20;;;;;;;29.29;41.83;92486.00;2045174;70;20142;-76
2022/06/05 09:03:15;;;;;;;13.13;4.43;;;;;;;29.20;40.62;92478.88;2048520;70;20234;-75
2022/06/05 09:05:45;;;;;;;10.98;4.20;;;;;;;29.73;40.66;92491.97;2048589;70;20150;-75
2022/06/05 09:08:20;;;;;;;10.90;3.80;;;;;;;29.43;39.93;92496.00;2045371;70;20258;-76
2022/06/05 09:10:51;;;;;;;14.93;4.28;;;;;;;29.67;41.44;92474.66;2048645;70;20205;-75
2022/06/05 09:13:28;;;;;;;16.90;4.25;;;;;;;30.03;41.93;92477.00;2048631;70;20183;-80
2022/06/05 09:16:02;;;;;;;10.45;3.88;;;;;;;29.74;38.40;92494.13;2048601;70;20607;-75
2022/06/05 09:18:37;;;;;;;14.05;4.28;;;;;;;29.94;39.32;92501.09;2048572;70;20604;-75
2022/06/05 09:21:11;;;;;;;9.63;3.33;;;;;;;30.51;40.10;92488.56;2048610;70;20130;-76
2022/06/05 09:23:44;;;;;;;12.45;3.95;;;;;;;30.42;41.29;92487.28;2045302;70;20145;-77
2022/06/05 09:26:41;;;;;;;17.95;4.00;;;;;;;29.98;38.75;92490.16;2048643;70;20211;-74
2022/06/05 09:29:29;;;;;;;13.93;4.20;;;;;;;29.69;40.93;92489.84;2045521;70;20627;-77
2022/06/05 09:32:13;;;;;;;15.57;4.22;;;;;;;29.43;40.28;92485.09;2048672;70;20677;-75
2022/06/05 09:34:50;;;;;;;15.10;4.00;;;;;;;29.19;41.06;92480.34;2048491;70;20162;-75
2022/06/05 09:37:24;;;;;;;12.38;3.95;;;;;;;29.36;45.37;92469.25;2048647;70;20174;-75
2022/06/05 09:40:01;;;;;;;17.25;4.32;;;;;;;29.87;43.60;92456.94;2048438;70;20222;-76
2022/06/05 09:42:59;;;;;;;10.63;4.15;;;;;;;30.17;43.71;92446.34;2048558;70;20147;-75
2022/06/05 09:45:37;;;;;;;14.48;4.07;;;;;;;29.72;43.57;92452.81;2031425;70;20215;-73
2022/06/05 09:48:23;;;;;;;14.30;4.60;;;;;;;29.84;41.35;92443.94;2031322;70;20156;-74
2022/06/05 09:50:49;;;;;;;13.80;3.88;;;;;;;30.11;44.19;92438.44;2031553;70;20157;-74
2022/06/05 09:53:20;;;;;;;15.68;4.05;;;;;;;30.56;43.28;92420.22;2031409;70;20152;-74
2022/06/05 09:56:17;;;;;;;13.10;4.30;;;;;;;31.02;41.68;92421.56;2031504;70;20144;-78
2022/06/05 09:58:52;;;;;;;15.20;4.47;;;;;;;31.18;38.99;92419.78;2031541;70;20152;-76
2022/06/05 10:01:28;;;;;;;12.40;4.18;;;;;;;30.77;39.72;92406.06;2031330;70;20156;-76
2022/06/05 10:03:56;;;;;;;10.73;3.75;;;;;;;31.47;36.39;92405.34;2031457;70;20136;-75
2022/06/05 10:06:35;;;;;;;14.73;4.18;;;;;;;30.31;38.19;92409.06;2031352;70;20625;-75
2022/06/05 10:09:15;;;;;;;13.88;4.25;;;;;;;30.09;37.95;92415.22;2031429;70;20144;-74
2022/06/05 10:11:49;;;;;;;15.15;4.05;;;;;;;30.33;38.78;92405.41;2031400;70;20195;-74
2022/06/05 10:14:21;;;;;;;14.80;4.05;;;;;;;31.01;39.99;92399.75;2031474;70;20164;-74
2022/06/05 10:16:57;;;;;;;19.23;4.53;;;;;;;30.86;40.23;92390.63;2031505;70;20172;-75
2022/06/05 10:19:38;;;;;;;8.70;3.88;;;;;;;31.06;40.91;92389.47;2031314;70;20252;-75
2022/06/05 10:22:22;;;;;;;12.75;3.95;;;;;;;31.58;40.67;92383.28;2047505;70;20193;-76
2022/06/05 10:25:03;;;;;;;14.15;4.07;;;;;;;32.02;37.57;92374.97;2048468;70;20189;-76
2022/06/05 10:27:29;;;;;;;13.63;4.15;;;;;;;32.50;35.58;92369.41;2048438;70;20147;-74
2022/06/05 10:30:00;;;;;;;18.88;4.15;;;;;;;32.72;33.63;92362.97;2048390;70;20134;-74
2022/06/05 10:33:13;;;;;;;17.92;4.68;;;;;;;32.44;33.92;92355.72;2048372;70;20612;-75
2022/06/05 10:36:01;;;;;;;14.68;4.13;;;;;;;33.06;32.90;92354.75;2031368;70;20346;-74
2022/06/05 10:38:52;;;;;;;16.83;3.83;;;;;;;34.44;30.13;92340.16;2031333;70;20160;-75
2022/06/05 10:41:38;;;;;;;17.45;3.85;;;;;;;34.87;31.00;92339.38;2034200;70;20271;-75
2022/06/05 10:44:31;;;;;;;16.65;4.45;;;;;;;34.88;30.49;92341.50;2031388;70;20189;-75
2022/06/05 10:47:02;;;;;;;17.10;3.63;;;;;;;35.01;29.72;92324.25;2031348;70;20148;-74
2022/06/05 10:49:35;;;;;;;19.63;4.38;;;;;;;34.01;30.40;92336.50;2031171;70;20775;-75
2022/06/05 10:52:22;;;;;;;17.30;3.90;;;;;;;33.86;31.82;92332.56;2031633;70;20172;-74
2022/06/05 10:55:34;;;;;;;16.38;4.25;;;;;;;33.44;32.25;92320.06;2031890;70;20249;-74
2022/06/05 10:58:16;;;;;;;21.88;4.43;;;;;;;33.98;31.34;92313.97;2029571;70;20175;-75
2022/06/05 11:00:44;;;;;;;;;;;;;;;35.46;29.31;92321.81;2032065;70;20156;-74
2022/06/05 11:03:45;;;;;;;16.85;3.92;;;;;;;36.21;28.47;92318.81;2031619;70;20143;-75
2022/06/05 11:06:42;;;;;;;20.88;4.28;;;;;;;34.49;31.01;92321.72;2031772;70;20613;-74
2022/06/05 11:09:35;;;;;;;14.55;3.95;;;;;;;33.86;30.84;92315.81;2031745;70;20160;-76
2022/06/05 11:15:08;;;;;;;15.60;4.10;;;;;;;37.06;29.74;92316.63;2049048;70;20572;-74
2022/06/05 11:17:54;;;;;;;16.70;3.95;;;;;;;35.75;29.66;92310.44;2048812;70;20253;-74
2022/06/05 11:20:26;;;;;;;17.35;4.15;;;;;;;36.72;29.17;92304.91;2048839;70;20143;-74
2022/06/05 11:23:04;;;;;;;17.83;4.35;;;;;;;35.63;28.58;92296.28;2048815;70;20578;-74
2022/06/05 11:25:51;;;;;;;18.88;4.07;;;;;;;36.58;27.95;92299.69;2048944;70;20226;-74
2022/06/05 11:28:41;;;;;;;15.27;3.90;;;;;;;35.57;28.61;92297.25;2048818;70;20142;-74
2022/06/05 11:31:17;;;;;;;17.92;3.85;;;;;;;36.98;27.65;92300.13;2048890;70;20151;-75
2022/06/05 11:33:56;;;;;;;12.50;3.30;;;;;;;37.49;26.94;92294.84;2048688;70;20535;-75
2022/06/05 11:36:37;;;;;;;19.98;4.63;;;;;;;36.35;27.93;92277.19;2048763;70;20170;-75
2022/06/05 11:39:16;;;;;;;22.13;3.77;;;;;;;34.86;31.03;92277.25;2048751;70;20134;-75
2022/06/05 11:42:00;;;;;;;19.58;3.92;;;;;;;34.39;31.44;92269.47;2048788;70;20139;-74
2022/06/05 11:44:50;;;;;;;13.60;3.83;;;;;;;34.19;32.70;92268.00;2048897;70;20142;-74
2022/06/05 11:47:56;;;;;;;15.05;3.72;;;;;;;35.38;31.03;92261.41;2048896;70;20146;-74
2022/06/05 11:50:26;;;;;;;16.92;3.80;;;;;;;34.79;32.35;92254.91;2048722;70;20150;-76
2022/06/05 11:53:10;;;;;;;16.30;4.03;;;;;;;37.71;27.24;92272.50;2048821;70;20656;-75
2022/06/05 11:55:49;;;;;;;15.48;3.35;;;;;;;35.31;28.77;92255.09;2048775;70;20155;-75
2022/06/05 11:58:24;;;;;;;16.73;4.07;;;;;;;34.58;29.40;92246.88;2048916;70;20595;-75
2022/06/05 12:00:56;;;;;;;16.77;3.33;;;;;;;35.09;29.84;92244.97;2045510;70;20628;-75
2022/06/05 12:03:39;;;;;;;20.38;4.20;;;;;;;35.44;30.65;92231.19;2048585;70;20170;-75
2022/06/05 12:06:17;;;;;;;20.08;4.00;;;;;;;35.39;30.67;92228.44;2048813;70;20611;-73
2022/06/05 12:08:50;;;;;;;19.13;3.95;;;;;;;38.41;30.43;92234.50;2048883;70;20135;-73
2022/06/05 12:11:24;;;;;;;15.10;3.53;;;;;;;38.76;24.67;92224.59;2048669;70;20153;-74